Arroyo Hondo, NM

9:42 AM MDT on April 26, 2015 (GMT -0600)
Hondo Mesa | | Change Station
CLOSE
Current Station
Personal Weather Station
Location: El Prado, NM
Elevation: 6959 ft
Nearby Weather Stations

Elev 6959 ft 36.52 °N, 105.69 °W | Updated 1 second ago

Overcast
Overcast
48.6 °F
Feels Like 49 °F
N
0.9
Wind Variable Wind from WSW
Gusts 2.5 mph

Today
High -- | Low -- °F
--% Chance of Precip.
Yesterday
High -- | Low -- °F
Precip. -- in
6:15 AM 7:46 PM
First Quarter, 56% visible
Pressure 29.78 in
Visibility 10.0 miles
Clouds Few 3900 ft
Overcast 4800 ft
Windchill 49 °F
Dew Point 33 °F
Humidity 54%
Rainfall 0.00 in
Snow Depth Not available.
UV 2.0 out of 12
Pollen 8.60 out of 12
Air Quality Not available.
Flu Activity Local Activity
METAR KSKX 261535Z 00000KT 10SM FEW039 OVC048 07/M02 A2978 RMK AO1

More Conditions Fewer Conditions

Pressure 29.78 in
Visibility 10.0 miles
Clouds Few 3900 ft
Overcast 4800 ft
Windchill 49 °F
Dew Point 33 °F
Humidity 54%
Rainfall 0.00 in
Snow Depth Not available.
UV 2.0 out of 12
Pollen 8.60 out of 12
Air Quality Not available.
Flu Activity Local Activity
METAR KSKX 261535Z 00000KT 10SM FEW039 OVC048 07/M02 A2978 RMK AO1

More Conditions Fewer Conditions

The full scope of the disaster following a powerful 7.8-magnitude earthquake in Nepal may not come into view for days, but global charities are already sending emergency aid. Click to see how you can help.
Nowcast | as of 9:30 am MDT on April 26, 2015

Areas of rain and...above roughly 8000 feet...snow will move north and northwestward across the upper Rio Grande Valley and the northern mountains the rest of the morning and beyond. The more persistent rain...with snow above 7500 to 8000 feet...will fall along and up to about 70 miles either side of the Rio Grande Valley. Rainfall amounts through 11 am will range from several hundreths to one quarter inch. Isolated amounts to one third of an inch are possible. Snow accumulations up to 2 inches are possible above 8000 or 8500 feet...though Road surfaces should remain mainly wet below 8500 or 9000 feet due to the recent warmth and daylight. The heaviest precipitation during this period should impact locales near Espanola...Embudo...Truchas...El Rito and Taos.

×

10-Day Weather Forecast

Almanac

Astronomy

Apr. 26, 2015 Rise Set
Actual Time
Civil Twilight
Nautical Twilight
Astronomical Twilight
Moon
Length of Visible Light
Length of Day
Tomorrow will be .
, % of the Moon is Illuminated

Today's Extremes

State Highs State Lows

Community

WunderPhotos

Upload Photos

1,817,043 photos uploaded!

WunderBlogs® & News

Nearby

Air Quality

  Air Quality AQ Index Pollutant
Not available.

Snow Depth

Station Depth Elevation

Earthquake Activity

City Distance Mag. Time & Date
Minimum magnitude displayed is 2.5.

Coastal Water Temperatures

Place Temperature

Stations

Nearby Weather Stations

Station Location Temp. Windchill Dew Point Humidity Wind Precip. Elev Updated Type